sensor_id;sensor_type;location;lat;lon;timestamp;temperature;humidity
43530;DHT22;55654;50.966;6.878;2023-11-18T00:03:00;3.80;99.90
43530;DHT22;55654;50.966;6.878;2023-11-18T00:05:26;3.60;99.90
43530;DHT22;55654;50.966;6.878;2023-11-18T01:40:58;3.60;99.90
43530;DHT22;55654;50.966;6.878;2023-11-18T01:43:26;4.20;99.90
43530;DHT22;55654;50.966;6.878;2023-11-18T01:45:52;4.20;99.90
43530;DHT22;55654;50.966;6.878;2023-11-18T01:48:20;4.30;99.90
43530;DHT22;55654;50.966;6.878;2023-11-18T01:50:48;4.30;99.90
43530;DHT22;55654;50.966;6.878;2023-11-18T01:53:15;4.20;99.90
43530;DHT22;55654;50.966;6.878;2023-11-18T01:55:40;4.30;99.90
43530;DHT22;55654;50.966;6.878;2023-11-18T01:58:07;4.30;99.90
43530;DHT22;55654;50.966;6.878;2023-11-18T02:00:37;4.20;99.90
43530;DHT22;55654;50.966;6.878;2023-11-18T02:03:05;4.30;99.90
43530;DHT22;55654;50.966;6.878;2023-11-18T02:05:31;4.30;99.90
43530;DHT22;55654;50.966;6.878;2023-11-18T02:08:01;4.30;99.90
43530;DHT22;55654;50.966;6.878;2023-11-18T02:13:31;4.30;99.90
43530;DHT22;55654;50.966;6.878;2023-11-18T02:15:59;4.30;99.90
43530;DHT22;55654;50.966;6.878;2023-11-18T02:18:29;4.30;99.90
43530;DHT22;55654;50.966;6.878;2023-11-18T02:20:56;4.30;99.90
43530;DHT22;55654;50.966;6.878;2023-11-18T02:23:25;4.30;99.90
43530;DHT22;55654;50.966;6.878;2023-11-18T02:25:55;4.30;99.90
43530;DHT22;55654;50.966;6.878;2023-11-18T02:28:24;4.30;99.90
43530;DHT22;55654;50.966;6.878;2023-11-18T02:30:51;4.30;99.90
43530;DHT22;55654;50.966;6.878;2023-11-18T02:33:27;4.40;99.90
43530;DHT22;55654;50.966;6.878;2023-11-18T02:35:59;4.30;99.90
43530;DHT22;55654;50.966;6.878;2023-11-18T02:38:35;4.30;99.90
43530;DHT22;55654;50.966;6.878;2023-11-18T02:41:05;4.30;99.90
43530;DHT22;55654;50.966;6.878;2023-11-18T02:43:35;4.30;99.90
43530;DHT22;55654;50.966;6.878;2023-11-18T02:46:06;4.30;99.90
43530;DHT22;55654;50.966;6.878;2023-11-18T02:48:33;4.20;99.90
43530;DHT22;55654;50.966;6.878;2023-11-18T02:50:59;4.20;99.90
43530;DHT22;55654;50.966;6.878;2023-11-18T02:53:25;4.20;99.90
43530;DHT22;55654;50.966;6.878;2023-11-18T02:55:51;4.20;99.90
43530;DHT22;55654;50.966;6.878;2023-11-18T02:58:20;4.30;99.90
43530;DHT22;55654;50.966;6.878;2023-11-18T03:00:46;4.30;99.90
43530;DHT22;55654;50.966;6.878;2023-11-18T03:03:12;4.20;99.90
43530;DHT22;55654;50.966;6.878;2023-11-18T03:05:39;4.20;99.90
43530;DHT22;55654;50.966;6.878;2023-11-18T03:08:05;4.20;99.90
43530;DHT22;55654;50.966;6.878;2023-11-18T03:10:33;4.20;99.90
43530;DHT22;55654;50.966;6.878;2023-11-18T03:13:01;4.20;99.90
43530;DHT22;55654;50.966;6.878;2023-11-18T03:15:27;4.30;99.90
43530;DHT22;55654;50.966;6.878;2023-11-18T03:17:54;4.30;99.90
43530;DHT22;55654;50.966;6.878;2023-11-18T03:20:21;4.30;99.90
43530;DHT22;55654;50.966;6.878;2023-11-18T03:22:49;4.30;99.90
43530;DHT22;55654;50.966;6.878;2023-11-18T03:25:16;4.30;99.90
43530;DHT22;55654;50.966;6.878;2023-11-18T03:27:42;4.30;99.90
43530;DHT22;55654;50.966;6.878;2023-11-18T03:30:09;4.30;99.90
43530;DHT22;55654;50.966;6.878;2023-11-18T03:32:36;4.30;99.90
43530;DHT22;55654;50.966;6.878;2023-11-18T03:35:05;4.30;99.90
43530;DHT22;55654;50.966;6.878;2023-11-18T03:37:41;4.30;99.90
43530;DHT22;55654;50.966;6.878;2023-11-18T03:40:07;4.40;99.90
43530;DHT22;55654;50.966;6.878;2023-11-18T03:42:33;4.30;99.90
43530;DHT22;55654;50.966;6.878;2023-11-18T03:44:58;4.40;99.90
43530;DHT22;55654;50.966;6.878;2023-11-18T03:47:24;4.30;99.90
43530;DHT22;55654;50.966;6.878;2023-11-18T03:49:50;4.30;99.90
43530;DHT22;55654;50.966;6.878;2023-11-18T03:52:16;4.30;99.90
43530;DHT22;55654;50.966;6.878;2023-11-18T03:54:42;4.20;99.90
43530;DHT22;55654;50.966;6.878;2023-11-18T03:57:07;4.20;99.90
43530;DHT22;55654;50.966;6.878;2023-11-18T03:59:33;4.20;99.90
43530;DHT22;55654;50.966;6.878;2023-11-18T04:01:59;4.20;99.90
43530;DHT22;55654;50.966;6.878;2023-11-18T04:04:25;4.20;99.90
43530;DHT22;55654;50.966;6.878;2023-11-18T04:06:50;4.20;99.90
43530;DHT22;55654;50.966;6.878;2023-11-18T04:09:16;4.20;99.90
43530;DHT22;55654;50.966;6.878;2023-11-18T04:11:42;4.20;99.90
43530;DHT22;55654;50.966;6.878;2023-11-18T04:14:10;4.20;99.90
43530;DHT22;55654;50.966;6.878;2023-11-18T04:16:36;4.20;99.90
43530;DHT22;55654;50.966;6.878;2023-11-18T04:19:03;4.10;99.90
43530;DHT22;55654;50.966;6.878;2023-11-18T04:21:29;4.20;99.90
43530;DHT22;55654;50.966;6.878;2023-11-18T04:23:55;4.10;99.90
43530;DHT22;55654;50.966;6.878;2023-11-18T04:26:21;4.10;99.90
43530;DHT22;55654;50.966;6.878;2023-11-18T04:28:46;4.20;99.90
43530;DHT22;55654;50.966;6.878;2023-11-18T04:31:12;4.20;99.90
43530;DHT22;55654;50.966;6.878;2023-11-18T04:33:38;4.10;99.90
43530;DHT22;55654;50.966;6.878;2023-11-18T04:36:06;4.20;99.90
43530;DHT22;55654;50.966;6.878;2023-11-18T04:38:35;4.20;99.90
43530;DHT22;55654;50.966;6.878;2023-11-18T04:41:01;4.20;99.90
43530;DHT22;55654;50.966;6.878;2023-11-18T04:43:29;4.20;99.90
43530;DHT22;55654;50.966;6.878;2023-11-18T04:45:56;4.20;99.90
43530;DHT22;55654;50.966;6.878;2023-11-18T04:48:21;4.20;99.90
43530;DHT22;55654;50.966;6.878;2023-11-18T04:50:47;4.10;99.90
43530;DHT22;55654;50.966;6.878;2023-11-18T04:53:13;4.20;99.90
43530;DHT22;55654;50.966;6.878;2023-11-18T04:55:39;4.20;99.90
43530;DHT22;55654;50.966;6.878;2023-11-18T04:58:05;4.10;99.90
43530;DHT22;55654;50.966;6.878;2023-11-18T05:00:37;4.20;99.90
43530;DHT22;55654;50.966;6.878;2023-11-18T05:03:07;4.20;99.90
43530;DHT22;55654;50.966;6.878;2023-11-18T05:05:36;4.20;99.90
43530;DHT22;55654;50.966;6.878;2023-11-18T05:08:06;4.10;99.90
43530;DHT22;55654;50.966;6.878;2023-11-18T05:10:34;4.20;99.90
43530;DHT22;55654;50.966;6.878;2023-11-18T05:13:01;4.10;99.90
43530;DHT22;55654;50.966;6.878;2023-11-18T05:15:26;4.20;99.90
43530;DHT22;55654;50.966;6.878;2023-11-18T05:17:53;4.10;99.90
43530;DHT22;55654;50.966;6.878;2023-11-18T05:20:20;4.20;99.90
43530;DHT22;55654;50.966;6.878;2023-11-18T05:22:46;4.20;99.90
43530;DHT22;55654;50.966;6.878;2023-11-18T05:25:12;4.10;99.90
43530;DHT22;55654;50.966;6.878;2023-11-18T05:27:38;4.30;99.90
43530;DHT22;55654;50.966;6.878;2023-11-18T05:30:07;4.30;99.90
43530;DHT22;55654;50.966;6.878;2023-11-18T05:32:33;4.30;99.90
43530;DHT22;55654;50.966;6.878;2023-11-18T05:34:59;4.30;99.90
43530;DHT22;55654;50.966;6.878;2023-11-18T05:37:25;4.30;99.90
43530;DHT22;55654;50.966;6.878;2023-11-18T05:39:51;4.30;99.90
43530;DHT22;55654;50.966;6.878;2023-11-18T05:42:27;4.30;99.90
43530;DHT22;55654;50.966;6.878;2023-11-18T05:44:56;4.40;99.90
43530;DHT22;55654;50.966;6.878;2023-11-18T05:47:26;4.40;99.90
43530;DHT22;55654;50.966;6.878;2023-11-18T05:49:53;4.40;99.90
43530;DHT22;55654;50.966;6.878;2023-11-18T05:52:19;4.40;99.90
43530;DHT22;55654;50.966;6.878;2023-11-18T05:54:48;4.40;99.90
43530;DHT22;55654;50.966;6.878;2023-11-18T05:57:17;4.40;99.90
43530;DHT22;55654;50.966;6.878;2023-11-18T05:59:43;4.40;99.90
43530;DHT22;55654;50.966;6.878;2023-11-18T06:02:09;4.30;99.90
43530;DHT22;55654;50.966;6.878;2023-11-18T06:04:43;4.30;99.90
43530;DHT22;55654;50.966;6.878;2023-11-18T06:07:08;4.40;99.90
43530;DHT22;55654;50.966;6.878;2023-11-18T06:09:34;4.40;99.90
43530;DHT22;55654;50.966;6.878;2023-11-18T06:12:00;4.40;99.90
43530;DHT22;55654;50.966;6.878;2023-11-18T06:14:27;4.50;99.90
43530;DHT22;55654;50.966;6.878;2023-11-18T06:16:53;4.50;99.90
43530;DHT22;55654;50.966;6.878;2023-11-18T06:19:18;4.50;99.90
43530;DHT22;55654;50.966;6.878;2023-11-18T06:21:47;4.30;99.90
43530;DHT22;55654;50.966;6.878;2023-11-18T06:24:13;4.40;99.90
43530;DHT22;55654;50.966;6.878;2023-11-18T06:26:40;4.50;99.90
43530;DHT22;55654;50.966;6.878;2023-11-18T06:29:07;4.50;99.90
43530;DHT22;55654;50.966;6.878;2023-11-18T06:31:32;4.50;99.90
43530;DHT22;55654;50.966;6.878;2023-11-18T06:33:58;4.40;99.90
43530;DHT22;55654;50.966;6.878;2023-11-18T06:36:24;4.40;99.90
43530;DHT22;55654;50.966;6.878;2023-11-18T06:38:52;4.40;99.90
43530;DHT22;55654;50.966;6.878;2023-11-18T06:41:21;4.50;99.90
43530;DHT22;55654;50.966;6.878;2023-11-18T06:43:49;4.50;99.90
43530;DHT22;55654;50.966;6.878;2023-11-18T06:46:23;4.50;99.90
43530;DHT22;55654;50.966;6.878;2023-11-18T06:48:54;4.50;99.90
43530;DHT22;55654;50.966;6.878;2023-11-18T06:51:24;4.50;99.90
43530;DHT22;55654;50.966;6.878;2023-11-18T06:53:53;4.50;99.90
43530;DHT22;55654;50.966;6.878;2023-11-18T06:56:26;4.60;99.90
43530;DHT22;55654;50.966;6.878;2023-11-18T06:58:51;4.50;99.90
43530;DHT22;55654;50.966;6.878;2023-11-18T07:01:17;4.50;99.90
43530;DHT22;55654;50.966;6.878;2023-11-18T07:03:47;4.60;99.90
43530;DHT22;55654;50.966;6.878;2023-11-18T07:06:19;4.60;99.90
43530;DHT22;55654;50.966;6.878;2023-11-18T07:08:49;4.60;99.90
43530;DHT22;55654;50.966;6.878;2023-11-18T07:11:16;4.60;99.90
43530;DHT22;55654;50.966;6.878;2023-11-18T07:13:42;4.70;99.90
43530;DHT22;55654;50.966;6.878;2023-11-18T07:16:08;4.60;99.90
43530;DHT22;55654;50.966;6.878;2023-11-18T07:18:35;4.70;99.90
43530;DHT22;55654;50.966;6.878;2023-11-18T07:21:01;4.70;99.90
43530;DHT22;55654;50.966;6.878;2023-11-18T07:23:30;4.80;99.90
43530;DHT22;55654;50.966;6.878;2023-11-18T07:25:55;4.90;99.90
43530;DHT22;55654;50.966;6.878;2023-11-18T07:28:21;4.90;99.90
43530;DHT22;55654;50.966;6.878;2023-11-18T07:30:48;4.90;99.90
43530;DHT22;55654;50.966;6.878;2023-11-18T07:33:17;4.90;99.90
43530;DHT22;55654;50.966;6.878;2023-11-18T07:35:44;4.90;99.90
43530;DHT22;55654;50.966;6.878;2023-11-18T07:38:12;4.90;99.90
43530;DHT22;55654;50.966;6.878;2023-11-18T07:40:38;5.00;99.90
43530;DHT22;55654;50.966;6.878;2023-11-18T07:43:08;5.00;99.90
43530;DHT22;55654;50.966;6.878;2023-11-18T07:45:37;4.90;99.90
43530;DHT22;55654;50.966;6.878;2023-11-18T07:48:12;4.90;99.90
43530;DHT22;55654;50.966;6.878;2023-11-18T07:50:40;5.00;99.90
43530;DHT22;55654;50.966;6.878;2023-11-18T07:53:07;5.00;99.90
43530;DHT22;55654;50.966;6.878;2023-11-18T07:55:33;5.00;99.90
43530;DHT22;55654;50.966;6.878;2023-11-18T07:58:08;4.90;99.90
43530;DHT22;55654;50.966;6.878;2023-11-18T08:00:40;5.10;99.90
43530;DHT22;55654;50.966;6.878;2023-11-18T08:03:07;5.30;99.90
43530;DHT22;55654;50.966;6.878;2023-11-18T08:05:40;5.20;99.90
43530;DHT22;55654;50.966;6.878;2023-11-18T08:08:07;5.20;99.90
43530;DHT22;55654;50.966;6.878;2023-11-18T08:10:36;5.20;99.90
43530;DHT22;55654;50.966;6.878;2023-11-18T08:13:05;5.20;99.90
43530;DHT22;55654;50.966;6.878;2023-11-18T08:15:42;5.20;99.90
43530;DHT22;55654;50.966;6.878;2023-11-18T08:18:08;5.30;99.90
43530;DHT22;55654;50.966;6.878;2023-11-18T08:20:36;5.30;99.90
43530;DHT22;55654;50.966;6.878;2023-11-18T08:23:02;5.30;99.90
43530;DHT22;55654;50.966;6.878;2023-11-18T08:25:30;5.30;99.90
43530;DHT22;55654;50.966;6.878;2023-11-18T08:27:55;5.40;99.90
43530;DHT22;55654;50.966;6.878;2023-11-18T08:30:21;5.40;99.90
43530;DHT22;55654;50.966;6.878;2023-11-18T08:32:47;5.40;99.90
43530;DHT22;55654;50.966;6.878;2023-11-18T08:35:14;5.50;99.90
43530;DHT22;55654;50.966;6.878;2023-11-18T08:37:41;5.50;99.90
43530;DHT22;55654;50.966;6.878;2023-11-18T08:40:11;5.70;99.90
43530;DHT22;55654;50.966;6.878;2023-11-18T08:42:55;5.50;99.90
43530;DHT22;55654;50.966;6.878;2023-11-18T08:45:27;5.50;99.90
43530;DHT22;55654;50.966;6.878;2023-11-18T08:47:54;5.60;99.90
43530;DHT22;55654;50.966;6.878;2023-11-18T08:50:21;5.60;99.90
43530;DHT22;55654;50.966;6.878;2023-11-18T08:52:50;5.60;99.90
43530;DHT22;55654;50.966;6.878;2023-11-18T08:55:18;5.60;99.90
43530;DHT22;55654;50.966;6.878;2023-11-18T08:57:48;5.60;99.90
43530;DHT22;55654;50.966;6.878;2023-11-18T09:00:30;5.70;99.90
43530;DHT22;55654;50.966;6.878;2023-11-18T09:03:16;5.80;99.90
43530;DHT22;55654;50.966;6.878;2023-11-18T09:05:51;5.80;99.90
43530;DHT22;55654;50.966;6.878;2023-11-18T09:08:28;5.80;99.90
43530;DHT22;55654;50.966;6.878;2023-11-18T09:10:56;5.80;99.90
43530;DHT22;55654;50.966;6.878;2023-11-18T09:13:23;5.80;99.90
43530;DHT22;55654;50.966;6.878;2023-11-18T09:15:58;6.00;99.90
43530;DHT22;55654;50.966;6.878;2023-11-18T09:18:28;5.90;99.90
43530;DHT22;55654;50.966;6.878;2023-11-18T09:20:55;5.90;99.90
43530;DHT22;55654;50.966;6.878;2023-11-18T09:23:25;5.90;99.90
43530;DHT22;55654;50.966;6.878;2023-11-18T09:26:00;5.90;99.90
43530;DHT22;55654;50.966;6.878;2023-11-18T09:28:27;6.00;99.90
43530;DHT22;55654;50.966;6.878;2023-11-18T09:30:56;5.90;99.90
43530;DHT22;55654;50.966;6.878;2023-11-18T09:33:26;6.10;99.90
43530;DHT22;55654;50.966;6.878;2023-11-18T09:36:03;6.00;99.90
43530;DHT22;55654;50.966;6.878;2023-11-18T09:38:31;6.00;99.90
43530;DHT22;55654;50.966;6.878;2023-11-18T09:40:59;6.10;99.90
43530;DHT22;55654;50.966;6.878;2023-11-18T09:43:36;6.10;99.90
43530;DHT22;55654;50.966;6.878;2023-11-18T09:46:11;6.20;99.90
43530;DHT22;55654;50.966;6.878;2023-11-18T09:48:47;6.20;99.90
43530;DHT22;55654;50.966;6.878;2023-11-18T09:51:21;6.20;99.90
43530;DHT22;55654;50.966;6.878;2023-11-18T09:53:50;6.20;99.90
43530;DHT22;55654;50.966;6.878;2023-11-18T09:59:22;6.40;99.90
43530;DHT22;55654;50.966;6.878;2023-11-18T10:01:53;6.50;99.90
43530;DHT22;55654;50.966;6.878;2023-11-18T10:04:23;6.60;99.90
43530;DHT22;55654;50.966;6.878;2023-11-18T10:06:53;6.60;99.90
43530;DHT22;55654;50.966;6.878;2023-11-18T10:09:19;6.60;99.90
43530;DHT22;55654;50.966;6.878;2023-11-18T10:11:54;6.70;99.90
43530;DHT22;55654;50.966;6.878;2023-11-18T10:14:26;6.60;99.90
43530;DHT22;55654;50.966;6.878;2023-11-18T10:16:52;6.70;99.90
43530;DHT22;55654;50.966;6.878;2023-11-18T10:19:19;6.70;99.90
43530;DHT22;55654;50.966;6.878;2023-11-18T10:21:45;6.70;99.90
43530;DHT22;55654;50.966;6.878;2023-11-18T10:24:14;6.70;99.90
43530;DHT22;55654;50.966;6.878;2023-11-18T10:26:53;6.90;99.90
43530;DHT22;55654;50.966;6.878;2023-11-18T10:29:19;6.70;99.90
43530;DHT22;55654;50.966;6.878;2023-11-18T10:31:45;6.80;99.90
43530;DHT22;55654;50.966;6.878;2023-11-18T10:34:12;6.80;99.90
43530;DHT22;55654;50.966;6.878;2023-11-18T10:36:41;6.80;99.90
43530;DHT22;55654;50.966;6.878;2023-11-18T10:39:12;6.80;99.90
43530;DHT22;55654;50.966;6.878;2023-11-18T10:41:42;6.80;99.90
43530;DHT22;55654;50.966;6.878;2023-11-18T10:44:09;6.80;99.90
43530;DHT22;55654;50.966;6.878;2023-11-18T10:46:40;6.90;99.90
43530;DHT22;55654;50.966;6.878;2023-11-18T10:49:06;6.90;99.90
43530;DHT22;55654;50.966;6.878;2023-11-18T10:51:35;6.90;99.90
43530;DHT22;55654;50.966;6.878;2023-11-18T10:54:04;6.90;99.90
43530;DHT22;55654;50.966;6.878;2023-11-18T10:56:30;7.00;99.90
43530;DHT22;55654;50.966;6.878;2023-11-18T10:59:00;7.00;99.90
43530;DHT22;55654;50.966;6.878;2023-11-18T11:01:35;7.10;99.90
43530;DHT22;55654;50.966;6.878;2023-11-18T11:04:10;7.10;99.90
43530;DHT22;55654;50.966;6.878;2023-11-18T11:06:44;7.10;99.90
43530;DHT22;55654;50.966;6.878;2023-11-18T11:09:21;7.10;99.90
43530;DHT22;55654;50.966;6.878;2023-11-18T11:11:54;7.30;99.90
43530;DHT22;55654;50.966;6.878;2023-11-18T11:14:22;7.20;99.90
43530;DHT22;55654;50.966;6.878;2023-11-18T11:17:04;7.20;99.90
43530;DHT22;55654;50.966;6.878;2023-11-18T11:20:08;7.20;99.90
43530;DHT22;55654;50.966;6.878;2023-11-18T11:30:42;7.40;99.90
43530;DHT22;55654;50.966;6.878;2023-11-18T11:33:28;7.30;99.90
43530;DHT22;55654;50.966;6.878;2023-11-18T11:35:56;7.20;99.90
43530;DHT22;55654;50.966;6.878;2023-11-18T11:38:25;7.30;99.90
43530;DHT22;55654;50.966;6.878;2023-11-18T11:40:54;7.30;99.90
43530;DHT22;55654;50.966;6.878;2023-11-18T11:43:21;7.20;99.90
43530;DHT22;55654;50.966;6.878;2023-11-18T11:45:53;7.30;99.90
43530;DHT22;55654;50.966;6.878;2023-11-18T11:48:22;7.30;99.90
43530;DHT22;55654;50.966;6.878;2023-11-18T11:53:24;7.30;99.90
43530;DHT22;55654;50.966;6.878;2023-11-18T11:55:53;7.30;99.90
43530;DHT22;55654;50.966;6.878;2023-11-18T11:58:26;7.30;99.90
43530;DHT22;55654;50.966;6.878;2023-11-18T12:00:52;7.40;99.90
43530;DHT22;55654;50.966;6.878;2023-11-18T12:03:21;7.40;99.90
43530;DHT22;55654;50.966;6.878;2023-11-18T12:05:54;7.50;99.90
43530;DHT22;55654;50.966;6.878;2023-11-18T12:08:22;7.50;99.90
43530;DHT22;55654;50.966;6.878;2023-11-18T12:10:51;7.50;99.90
43530;DHT22;55654;50.966;6.878;2023-11-18T12:13:23;7.40;99.90
43530;DHT22;55654;50.966;6.878;2023-11-18T12:15:55;7.40;99.90
43530;DHT22;55654;50.966;6.878;2023-11-18T12:18:29;7.50;99.90
43530;DHT22;55654;50.966;6.878;2023-11-18T12:20:59;7.50;99.90
43530;DHT22;55654;50.966;6.878;2023-11-18T12:23:28;7.50;99.90
43530;DHT22;55654;50.966;6.878;2023-11-18T12:25:56;7.50;99.90
43530;DHT22;55654;50.966;6.878;2023-11-18T12:28:31;7.60;99.90
43530;DHT22;55654;50.966;6.878;2023-11-18T12:31:03;7.60;99.90
43530;DHT22;55654;50.966;6.878;2023-11-18T12:41:40;7.50;99.90
43530;DHT22;55654;50.966;6.878;2023-11-18T12:44:33;7.60;99.90
43530;DHT22;55654;50.966;6.878;2023-11-18T12:47:05;7.60;99.90
43530;DHT22;55654;50.966;6.878;2023-11-18T12:49:41;7.60;99.90
43530;DHT22;55654;50.966;6.878;2023-11-18T12:52:11;7.50;99.90
43530;DHT22;55654;50.966;6.878;2023-11-18T12:54:44;7.60;99.90
43530;DHT22;55654;50.966;6.878;2023-11-18T12:57:10;7.60;99.90
43530;DHT22;55654;50.966;6.878;2023-11-18T12:59:40;7.60;99.90
43530;DHT22;55654;50.966;6.878;2023-11-18T13:02:09;7.60;99.90
43530;DHT22;55654;50.966;6.878;2023-11-18T13:04:40;7.60;99.90
43530;DHT22;55654;50.966;6.878;2023-11-18T13:07:06;7.60;99.90
43530;DHT22;55654;50.966;6.878;2023-11-18T13:09:34;7.60;99.90
43530;DHT22;55654;50.966;6.878;2023-11-18T13:12:03;7.60;99.90
43530;DHT22;55654;50.966;6.878;2023-11-18T13:14:35;7.60;99.90
43530;DHT22;55654;50.966;6.878;2023-11-18T13:17:10;7.60;99.90
43530;DHT22;55654;50.966;6.878;2023-11-18T13:19:37;7.60;99.90
43530;DHT22;55654;50.966;6.878;2023-11-18T13:22:07;7.70;99.90
43530;DHT22;55654;50.966;6.878;2023-11-18T13:24:38;7.70;99.90
43530;DHT22;55654;50.966;6.878;2023-11-18T13:27:10;7.80;99.90
43530;DHT22;55654;50.966;6.878;2023-11-18T13:29:37;7.70;99.90
43530;DHT22;55654;50.966;6.878;2023-11-18T13:32:07;7.70;99.90
43530;DHT22;55654;50.966;6.878;2023-11-18T13:34:35;7.70;99.90
43530;DHT22;55654;50.966;6.878;2023-11-18T13:37:06;7.70;99.90
43530;DHT22;55654;50.966;6.878;2023-11-18T13:39:33;7.70;99.90
43530;DHT22;55654;50.966;6.878;2023-11-18T13:42:02;7.70;99.90
43530;DHT22;55654;50.966;6.878;2023-11-18T13:44:43;7.70;99.90
43530;DHT22;55654;50.966;6.878;2023-11-18T13:47:11;7.70;99.90
43530;DHT22;55654;50.966;6.878;2023-11-18T13:49:38;7.70;99.90
43530;DHT22;55654;50.966;6.878;2023-11-18T13:52:07;7.70;99.90
43530;DHT22;55654;50.966;6.878;2023-11-18T13:54:40;7.70;99.90
43530;DHT22;55654;50.966;6.878;2023-11-18T13:57:08;7.60;99.90
43530;DHT22;55654;50.966;6.878;2023-11-18T13:59:35;7.70;99.90
43530;DHT22;55654;50.966;6.878;2023-11-18T14:02:01;7.80;99.90
43530;DHT22;55654;50.966;6.878;2023-11-18T14:04:30;7.80;99.90
43530;DHT22;55654;50.966;6.878;2023-11-18T14:07:00;7.80;99.90
43530;DHT22;55654;50.966;6.878;2023-11-18T14:09:27;7.80;99.90
43530;DHT22;55654;50.966;6.878;2023-11-18T14:11:55;7.70;99.90
43530;DHT22;55654;50.966;6.878;2023-11-18T14:14:25;7.80;99.90
43530;DHT22;55654;50.966;6.878;2023-11-18T14:16:53;7.70;99.90
43530;DHT22;55654;50.966;6.878;2023-11-18T14:19:23;7.70;99.90
43530;DHT22;55654;50.966;6.878;2023-11-18T14:21:51;7.80;99.90
43530;DHT22;55654;50.966;6.878;2023-11-18T14:24:16;7.80;99.90
43530;DHT22;55654;50.966;6.878;2023-11-18T14:26:43;7.70;99.90
43530;DHT22;55654;50.966;6.878;2023-11-18T14:29:09;7.70;99.90
43530;DHT22;55654;50.966;6.878;2023-11-18T14:31:37;7.80;99.90
43530;DHT22;55654;50.966;6.878;2023-11-18T14:34:03;7.80;99.90
43530;DHT22;55654;50.966;6.878;2023-11-18T14:36:29;7.80;99.90
43530;DHT22;55654;50.966;6.878;2023-11-18T14:38:55;7.70;99.90
43530;DHT22;55654;50.966;6.878;2023-11-18T14:41:21;7.80;99.90
43530;DHT22;55654;50.966;6.878;2023-11-18T14:43:51;7.70;99.90
43530;DHT22;55654;50.966;6.878;2023-11-18T14:46:17;7.70;99.90
43530;DHT22;55654;50.966;6.878;2023-11-18T14:48:44;7.60;99.90
43530;DHT22;55654;50.966;6.878;2023-11-18T14:51:09;7.70;99.90
43530;DHT22;55654;50.966;6.878;2023-11-18T14:53:36;7.70;99.90
43530;DHT22;55654;50.966;6.878;2023-11-18T14:56:03;7.70;99.90
43530;DHT22;55654;50.966;6.878;2023-11-18T14:58:31;7.70;99.90
43530;DHT22;55654;50.966;6.878;2023-11-18T15:00:58;7.70;99.90
43530;DHT22;55654;50.966;6.878;2023-11-18T15:03:25;7.60;99.90
43530;DHT22;55654;50.966;6.878;2023-11-18T15:05:50;7.60;99.90
43530;DHT22;55654;50.966;6.878;2023-11-18T15:08:16;7.60;99.90
43530;DHT22;55654;50.966;6.878;2023-11-18T15:10:42;7.60;99.90
43530;DHT22;55654;50.966;6.878;2023-11-18T15:13:09;7.60;99.90
43530;DHT22;55654;50.966;6.878;2023-11-18T15:15:41;7.60;99.90
43530;DHT22;55654;50.966;6.878;2023-11-18T15:18:07;7.60;99.90
43530;DHT22;55654;50.966;6.878;2023-11-18T15:20:43;7.60;99.90
43530;DHT22;55654;50.966;6.878;2023-11-18T15:23:10;7.60;99.90
43530;DHT22;55654;50.966;6.878;2023-11-18T15:25:36;7.60;99.90
43530;DHT22;55654;50.966;6.878;2023-11-18T15:28:02;7.60;99.90
43530;DHT22;55654;50.966;6.878;2023-11-18T15:30:29;7.60;99.90
43530;DHT22;55654;50.966;6.878;2023-11-18T15:32:55;7.60;99.90
43530;DHT22;55654;50.966;6.878;2023-11-18T15:35:22;7.60;99.90
43530;DHT22;55654;50.966;6.878;2023-11-18T15:37:48;7.60;99.90
43530;DHT22;55654;50.966;6.878;2023-11-18T15:40:14;7.50;99.90
43530;DHT22;55654;50.966;6.878;2023-11-18T15:42:45;7.60;99.90
43530;DHT22;55654;50.966;6.878;2023-11-18T15:45:21;7.60;99.90
43530;DHT22;55654;50.966;6.878;2023-11-18T15:47:50;7.60;99.90
43530;DHT22;55654;50.966;6.878;2023-11-18T15:50:16;7.60;99.90
43530;DHT22;55654;50.966;6.878;2023-11-18T15:52:45;7.60;99.90
43530;DHT22;55654;50.966;6.878;2023-11-18T15:55:11;7.50;99.90
43530;DHT22;55654;50.966;6.878;2023-11-18T15:57:48;7.50;99.90
43530;DHT22;55654;50.966;6.878;2023-11-18T16:00:21;7.50;99.90
43530;DHT22;55654;50.966;6.878;2023-11-18T16:02:52;7.50;99.90
43530;DHT22;55654;50.966;6.878;2023-11-18T16:05:19;7.50;99.90
43530;DHT22;55654;50.966;6.878;2023-11-18T16:07:47;7.50;99.90
43530;DHT22;55654;50.966;6.878;2023-11-18T16:10:15;7.60;99.90
43530;DHT22;55654;50.966;6.878;2023-11-18T16:13:01;7.50;99.90
43530;DHT22;55654;50.966;6.878;2023-11-18T16:15:29;7.60;99.90
43530;DHT22;55654;50.966;6.878;2023-11-18T16:17:56;7.60;99.90
43530;DHT22;55654;50.966;6.878;2023-11-18T16:20:25;7.60;99.90
43530;DHT22;55654;50.966;6.878;2023-11-18T16:22:52;7.60;99.90
43530;DHT22;55654;50.966;6.878;2023-11-18T16:25:25;7.50;99.90
43530;DHT22;55654;50.966;6.878;2023-11-18T16:27:57;7.50;99.90
43530;DHT22;55654;50.966;6.878;2023-11-18T16:30:24;7.60;99.90
43530;DHT22;55654;50.966;6.878;2023-11-18T16:32:51;7.50;99.90
43530;DHT22;55654;50.966;6.878;2023-11-18T16:35:20;7.50;99.90
43530;DHT22;55654;50.966;6.878;2023-11-18T16:37:46;7.60;99.90
43530;DHT22;55654;50.966;6.878;2023-11-18T16:40:13;7.50;99.90
43530;DHT22;55654;50.966;6.878;2023-11-18T16:42:46;7.50;99.90
43530;DHT22;55654;50.966;6.878;2023-11-18T16:45:13;7.50;99.90
43530;DHT22;55654;50.966;6.878;2023-11-18T16:47:40;7.50;99.90
43530;DHT22;55654;50.966;6.878;2023-11-18T16:50:07;7.60;99.90
43530;DHT22;55654;50.966;6.878;2023-11-18T16:52:41;7.60;99.90
43530;DHT22;55654;50.966;6.878;2023-11-18T16:55:08;7.60;99.90
43530;DHT22;55654;50.966;6.878;2023-11-18T16:57:35;7.50;99.90
43530;DHT22;55654;50.966;6.878;2023-11-18T17:00:02;7.60;99.90
43530;DHT22;55654;50.966;6.878;2023-11-18T17:02:30;7.60;99.90
43530;DHT22;55654;50.966;6.878;2023-11-18T17:04:56;7.60;99.90
43530;DHT22;55654;50.966;6.878;2023-11-18T17:07:21;7.60;99.90
43530;DHT22;55654;50.966;6.878;2023-11-18T17:09:47;7.60;99.90
43530;DHT22;55654;50.966;6.878;2023-11-18T17:12:13;7.60;99.90
43530;DHT22;55654;50.966;6.878;2023-11-18T17:14:39;7.60;99.90
43530;DHT22;55654;50.966;6.878;2023-11-18T17:17:05;7.60;99.90
43530;DHT22;55654;50.966;6.878;2023-11-18T17:19:33;7.70;99.90
43530;DHT22;55654;50.966;6.878;2023-11-18T17:21:59;7.70;99.90
43530;DHT22;55654;50.966;6.878;2023-11-18T17:24:25;7.70;99.90
43530;DHT22;55654;50.966;6.878;2023-11-18T17:26:53;7.60;99.90
43530;DHT22;55654;50.966;6.878;2023-11-18T17:29:19;7.60;99.90
43530;DHT22;55654;50.966;6.878;2023-11-18T17:31:45;7.70;99.90
43530;DHT22;55654;50.966;6.878;2023-11-18T17:34:11;7.60;99.90
43530;DHT22;55654;50.966;6.878;2023-11-18T17:36:37;7.70;99.90
43530;DHT22;55654;50.966;6.878;2023-11-18T17:39:03;7.60;99.90
43530;DHT22;55654;50.966;6.878;2023-11-18T17:41:29;7.70;99.90
43530;DHT22;55654;50.966;6.878;2023-11-18T17:43:55;7.70;99.90
43530;DHT22;55654;50.966;6.878;2023-11-18T17:46:21;7.70;99.90
43530;DHT22;55654;50.966;6.878;2023-11-18T17:48:47;7.70;99.90
43530;DHT22;55654;50.966;6.878;2023-11-18T17:51:13;7.70;99.90
43530;DHT22;55654;50.966;6.878;2023-11-18T17:53:39;7.70;99.90